Time;durP1;ratioP1;P1;durP2;ratioP2;P2;SDS_P1;SDS_P2;PMS_P1;PMS_P2;Temp;Humidity;BMP_temperature;BMP_pressure;BME280_temperature;BME280_humidity;BME280_pressure;Samples;Min_cycle;Max_cycle;Signal;HPM_P1;HPM_P2
2022/04/05 00:00:36;;;;;;;1.00;1.00;;;;;;;4.00;70.30;98493.46;105235;1281;138673;-89
2022/04/05 00:03:26;;;;;;;1.00;1.00;;;;;;;3.94;70.42;98485.57;105403;1280;95407;-87
2022/04/05 00:05:56;;;;;;;1.00;1.00;;;;;;;3.95;70.57;98480.11;105451;1281;108690;-88
2022/04/05 00:08:24;;;;;;;1.00;1.00;;;;;;;4.05;70.32;98486.46;105442;1281;138578;-87
2022/04/05 00:11:16;;;;;;;1.00;1.00;;;;;;;4.11;70.39;98478.55;105559;1278;107806;-88
2022/04/05 00:13:46;;;;;;;0.90;0.90;;;;;;;4.09;70.45;98476.33;105326;1281;137346;-89
2022/04/05 00:16:37;;;;;;;1.00;1.00;;;;;;;4.05;70.48;98472.41;105348;1281;94262;-89
2022/04/05 00:19:08;;;;;;;1.00;1.00;;;;;;;4.03;70.59;98467.73;105369;1281;138235;-87
2022/04/05 00:21:40;;;;;;;0.90;0.90;;;;;;;4.05;70.51;98460.98;105438;1281;99492;-86
2022/04/05 00:24:30;;;;;;;1.00;1.00;;;;;;;4.09;70.22;98457.70;105211;1281;137732;-86
2022/04/05 00:27:25;;;;;;;0.90;0.90;;;;;;;4.04;70.30;98455.95;105368;1280;95877;-89
2022/04/05 00:29:59;;;;;;;1.00;1.00;;;;;;;4.10;70.42;98457.15;105474;1281;94305;-88
2022/04/05 00:32:31;;;;;;;0.90;0.90;;;;;;;4.15;70.19;98452.79;105306;1281;138072;-89
2022/04/05 00:35:05;;;;;;;1.00;1.00;;;;;;;4.18;70.20;98444.77;105380;1281;98361;-91
2022/04/05 00:37:38;;;;;;;1.00;1.00;;;;;;;4.25;69.71;98436.66;105277;1281;137797;-88
2022/04/05 00:40:49;;;;;;;1.00;1.00;;;;;;;4.29;69.78;98435.83;105609;1279;95287;-88
2022/04/05 00:43:18;;;;;;;0.90;0.90;;;;;;;4.31;69.79;98428.02;105302;1281;138645;-88
2022/04/05 00:45:47;;;;;;;0.90;0.90;;;;;;;4.28;69.83;98431.10;105498;1281;109223;-88
2022/04/05 00:48:45;;;;;;;0.90;0.90;;;;;;;4.26;69.88;98423.79;105346;1281;138235;-88
2022/04/05 00:51:15;;;;;;;1.00;1.00;;;;;;;4.29;69.96;98417.20;105411;1281;106994;-91
2022/04/05 00:53:47;;;;;;;0.90;0.90;;;;;;;4.24;70.16;98409.47;105367;1281;94358;-90
2022/04/05 00:56:22;;;;;;;0.90;0.90;;;;;;;4.15;70.51;98403.06;105240;1281;138469;-88
2022/04/05 00:59:07;;;;;;;0.90;0.90;;;;;;;4.13;70.78;98405.25;105419;1281;108292;-89
2022/04/05 01:02:18;;;;;;;1.10;1.10;;;;;;;4.16;71.08;98405.48;105470;1278;138523;-87
2022/04/05 01:04:48;;;;;;;0.90;0.90;;;;;;;4.23;70.72;98397.38;105535;1280;108486;-90
2022/04/05 01:07:23;;;;;;;1.00;1.00;;;;;;;4.23;70.69;98389.80;105255;1280;138883;-87
2022/04/05 01:10:14;;;;;;;0.90;0.90;;;;;;;4.15;70.77;98384.29;105367;1280;95666;-88
2022/04/05 01:12:42;;;;;;;0.90;0.90;;;;;;;4.16;70.52;98385.98;105353;1281;138030;-88
2022/04/05 01:15:18;;;;;;;0.90;0.90;;;;;;;4.17;70.47;98392.28;105239;1281;98909;-88
2022/04/05 01:17:47;;;;;;;1.00;1.00;;;;;;;4.22;70.36;98390.39;105265;1281;108275;-88
2022/04/05 01:20:15;;;;;;;0.90;0.90;;;;;;;4.27;70.05;98390.92;105157;1281;139311;-88
2022/04/05 01:22:54;;;;;;;0.90;0.90;;;;;;;4.32;70.36;98387.95;105417;1281;95205;-89
2022/04/05 01:26:06;;;;;;;0.90;0.90;;;;;;;4.28;70.35;98388.45;105132;1281;138895;-88
2022/04/05 01:28:57;;;;;;;0.90;0.90;;;;;;;4.22;70.84;98388.81;101745;1279;98637;-89
2022/04/05 01:32:08;;;;;;;1.00;1.00;;;;;;;4.15;71.20;98383.21;105384;1281;139362;-87
2022/04/05 01:34:45;;;;;;;0.90;0.90;;;;;;;4.12;71.33;98384.40;105374;1281;95458;-89
2022/04/05 01:37:17;;;;;;;0.90;0.90;;;;;;;4.11;71.26;98382.83;105160;1281;138220;-89
2022/04/05 01:39:47;;;;;;;1.00;1.00;;;;;;;4.09;71.33;98381.31;105366;1281;97204;-89
2022/04/05 01:42:27;;;;;;;1.00;1.00;;;;;;;4.12;71.51;98381.04;105236;1281;138551;-88
2022/04/05 01:44:55;;;;;;;0.90;0.90;;;;;;;4.11;71.16;98373.52;105195;1281;95249;-89
2022/04/05 01:47:24;;;;;;;0.90;0.90;;;;;;;4.16;71.20;98366.85;105711;1281;95665;-89
2022/04/05 01:49:55;;;;;;;0.90;0.90;;;;;;;4.15;71.32;98361.28;107403;1279;137134;-90
2022/04/05 01:52:25;;;;;;;1.00;1.00;;;;;;;4.12;71.55;98355.05;107154;1281;98410;-89
2022/04/05 01:54:53;;;;;;;0.90;0.90;;;;;;;4.14;71.46;98351.14;105591;1281;138483;-88
2022/04/05 01:57:23;;;;;;;0.90;0.90;;;;;;;4.23;71.31;98346.98;105296;1281;95215;-88
2022/04/05 02:00:14;;;;;;;0.80;0.80;;;;;;;4.20;71.48;98348.64;105341;1281;95193;-88
2022/04/05 02:02:44;;;;;;;1.10;1.10;;;;;;;4.15;71.77;98343.35;105063;1281;138407;-88
2022/04/05 02:05:13;;;;;;;0.90;0.90;;;;;;;4.19;71.94;98347.09;105279;1281;98022;-89
2022/04/05 02:07:44;;;;;;;0.90;0.90;;;;;;;4.21;71.69;98337.73;105113;1281;138972;-88
2022/04/05 02:10:15;;;;;;;0.80;0.80;;;;;;;4.25;71.68;98335.47;105521;1279;95260;-89
2022/04/05 02:13:05;;;;;;;0.90;0.90;;;;;;;4.24;71.78;98334.29;105149;1281;138918;-89
2022/04/05 02:15:54;;;;;;;1.00;1.00;;;;;;;4.20;72.16;98328.61;105231;1281;108758;-88
2022/04/05 02:18:28;;;;;;;0.80;0.80;;;;;;;4.17;72.34;98323.45;104923;1281;138725;-88
2022/04/05 02:21:16;;;;;;;0.90;0.90;;;;;;;4.18;72.62;98324.11;105322;1281;107601;-88
2022/04/05 02:24:15;;;;;;;0.80;0.80;;;;;;;4.23;72.59;98320.97;105187;1281;95174;-91
2022/04/05 02:26:46;;;;;;;0.80;0.80;;;;;;;4.28;72.48;98316.60;105267;1281;138180;-89
2022/04/05 02:29:36;;;;;;;0.90;0.90;;;;;;;4.32;72.44;98320.46;105454;1281;108753;-88
2022/04/05 02:32:16;;;;;;;0.90;0.90;;;;;;;4.36;72.32;98308.42;105044;1281;138556;-89
2022/04/05 02:34:47;;;;;;;0.90;0.90;;;;;;;4.42;72.03;98313.14;105109;1281;107767;-93
2022/04/05 02:37:15;;;;;;;0.80;0.80;;;;;;;4.39;72.52;98308.83;104879;1281;138454;-87
2022/04/05 02:39:45;;;;;;;0.80;0.80;;;;;;;4.37;72.41;98307.14;105210;1281;95269;-88
2022/04/05 02:42:58;;;;;;;0.80;0.80;;;;;;;4.39;72.53;98305.14;105338;1279;138534;-90
2022/04/05 02:45:55;;;;;;;0.90;0.90;;;;;;;4.33;72.91;98307.61;105406;1281;97169;-88
2022/04/05 02:48:25;;;;;;;0.80;0.80;;;;;;;4.36;73.12;98304.02;105157;1281;138578;-89
2022/04/05 02:51:00;;;;;;;0.80;0.80;;;;;;;4.37;73.06;98305.73;105225;1281;95285;-89
2022/04/05 02:53:32;;;;;;;0.80;0.80;;;;;;;4.49;72.79;98304.45;105547;1281;95695;-87
2022/04/05 02:56:42;;;;;;;0.80;0.80;;;;;;;4.58;72.42;98303.41;105010;1281;140257;-88
2022/04/05 02:59:32;;;;;;;0.90;0.90;;;;;;;4.64;72.44;98299.00;105466;1281;98732;-87
2022/04/05 03:02:42;;;;;;;0.90;0.90;;;;;;;4.67;72.24;98301.84;105229;1281;138284;-88
2022/04/05 03:05:19;;;;;;;0.90;0.90;;;;;;;4.68;72.38;98300.39;105347;1281;95507;-89
2022/04/05 03:08:06;;;;;;;0.80;0.80;;;;;;;4.77;72.17;98295.54;104958;1281;138133;-89
2022/04/05 03:11:19;;;;;;;0.90;0.90;;;;;;;4.79;72.15;98292.28;105315;1281;109252;-87
2022/04/05 03:13:50;;;;;;;0.90;0.90;;;;;;;4.82;72.30;98284.62;104997;1281;138773;-88
2022/04/05 03:16:40;;;;;;;0.80;0.80;;;;;;;4.83;72.17;98285.77;105382;1281;107678;-87
2022/04/05 03:19:55;;;;;;;0.70;0.70;;;;;;;4.91;72.06;98285.50;105360;1279;138451;-89
2022/04/05 03:22:52;;;;;;;0.80;0.80;;;;;;;4.96;71.91;98287.23;105317;1281;95785;-91
2022/04/05 03:25:25;;;;;;;0.80;0.80;;;;;;;5.04;71.65;98291.00;105381;1281;138793;-88
2022/04/05 03:28:11;;;;;;;0.80;0.80;;;;;;;5.06;71.68;98287.80;105622;1281;96585;-89
2022/04/05 03:30:39;;;;;;;0.80;0.80;;;;;;;5.10;71.66;98286.39;105271;1281;137427;-89
2022/04/05 03:33:36;;;;;;;0.70;0.70;;;;;;;5.19;71.59;98288.31;105251;1281;95757;-88
2022/04/05 03:36:16;;;;;;;0.80;0.80;;;;;;;5.24;71.40;98290.41;105328;1279;95641;-90
2022/04/05 03:39:05;;;;;;;0.80;0.80;;;;;;;5.21;71.60;98284.18;105295;1281;137679;-86
2022/04/05 03:41:54;;;;;;;0.70;0.70;;;;;;;5.19;71.84;98290.45;105187;1281;98191;-88
2022/04/05 03:45:07;;;;;;;0.80;0.80;;;;;;;5.21;71.68;98282.11;105202;1281;139159;-90
2022/04/05 03:47:39;;;;;;;0.80;0.80;;;;;;;5.28;71.49;98275.31;105305;1281;95535;-89
2022/04/05 03:50:18;;;;;;;0.80;0.80;;;;;;;5.31;71.13;98271.31;105221;1281;138541;-88
2022/04/05 03:52:48;;;;;;;0.80;0.80;;;;;;;5.38;70.90;98275.98;105317;1281;108650;-88
2022/04/05 03:56:08;;;;;;;0.80;0.80;;;;;;;5.42;70.76;98274.61;105390;1279;137810;-87
2022/04/05 03:59:01;;;;;;;0.80;0.80;;;;;;;5.42;70.47;98283.75;105329;1281;108815;-87
2022/04/05 04:01:35;;;;;;;0.80;0.80;;;;;;;5.44;70.54;98281.89;105316;1279;138754;-89
2022/04/05 04:04:04;;;;;;;0.70;0.70;;;;;;;5.51;70.36;98280.20;105339;1281;95430;-91
2022/04/05 04:06:36;;;;;;;0.70;0.70;;;;;;;5.52;70.28;98272.61;105344;1281;110969;-88
2022/04/05 04:09:06;;;;;;;0.80;0.80;;;;;;;5.52;70.14;98277.54;105308;1281;137935;-88
2022/04/05 04:11:40;;;;;;;0.90;0.90;;;;;;;5.55;70.04;98278.82;105427;1279;107786;-87
2022/04/05 04:14:49;;;;;;;0.70;0.70;;;;;;;5.53;70.09;98280.30;105263;1281;138240;-88
2022/04/05 04:18:43;;;;;;;0.80;0.80;;;;;;;5.54;69.94;98281.34;105330;1281;95073;-88
2022/04/05 04:21:34;;;;;;;0.80;0.80;;;;;;;5.62;69.93;98289.64;105611;1281;107438;-87
2022/04/05 04:24:22;;;;;;;0.80;0.80;;;;;;;5.61;69.75;98285.63;105310;1281;98467;-89
2022/04/05 04:26:51;;;;;;;0.70;0.70;;;;;;;5.57;69.79;98285.26;105237;1281;138573;-89
2022/04/05 04:29:19;;;;;;;0.80;0.80;;;;;;;5.58;69.95;98282.23;105436;1281;95694;-88
2022/04/05 04:32:12;;;;;;;0.80;0.80;;;;;;;5.58;69.80;98284.52;105298;1281;138068;-87
2022/04/05 04:35:16;;;;;;;0.70;0.70;;;;;;;5.63;69.67;98286.77;105504;1281;108663;-89
2022/04/05 04:38:07;;;;;;;0.70;0.70;;;;;;;5.66;69.59;98284.53;105117;1281;138752;-89
2022/04/05 04:40:35;;;;;;;0.80;0.80;;;;;;;5.70;69.41;98291.62;105461;1281;106759;-89
2022/04/05 04:44:09;;;;;;;0.80;0.80;;;;;;;5.74;69.39;98287.02;105384;1280;139642;-88
2022/04/05 04:46:58;;;;;;;0.80;0.80;;;;;;;5.80;69.14;98296.65;105410;1281;95523;-88
2022/04/05 04:49:26;;;;;;;0.80;0.80;;;;;;;5.83;69.20;98300.06;105424;1280;138012;-90
2022/04/05 04:51:55;;;;;;;0.80;0.80;;;;;;;5.84;68.98;98298.98;105319;1281;98339;-88
2022/04/05 04:54:45;;;;;;;0.80;0.80;;;;;;;5.86;69.13;98296.95;105311;1279;108812;-87
2022/04/05 04:57:51;;;;;;;0.70;0.70;;;;;;;5.87;69.16;98293.90;105136;1280;138423;-90
2022/04/05 05:00:24;;;;;;;0.70;0.70;;;;;;;5.96;68.95;98289.86;105542;1279;95407;-88
2022/04/05 05:02:54;;;;;;;0.70;0.70;;;;;;;5.98;69.12;98295.22;105303;1279;139337;-87
2022/04/05 05:05:23;;;;;;;0.80;0.80;;;;;;;6.03;69.23;98304.37;105489;1279;99377;-87
2022/04/05 05:07:52;;;;;;;0.70;0.70;;;;;;;6.04;69.76;98311.76;105278;1280;138611;-91
2022/04/05 05:10:46;;;;;;;0.70;0.70;;;;;;;6.04;70.09;98308.39;105333;1279;95589;-90
2022/04/05 05:13:17;;;;;;;0.70;0.70;;;;;;;6.07;70.14;98300.50;105517;1279;94418;-90
2022/04/05 05:16:11;;;;;;;0.70;0.70;;;;;;;6.07;69.88;98301.95;105422;1281;108932;-89
2022/04/05 05:18:42;;;;;;;0.70;0.70;;;;;;;6.08;69.82;98303.83;105430;1279;98370;-89
2022/04/05 05:21:13;;;;;;;0.70;0.70;;;;;;;6.15;69.84;98304.23;105269;1279;139155;-88
2022/04/05 05:23:43;;;;;;;0.70;0.70;;;;;;;6.22;69.35;98298.30;105350;1279;95488;-89
2022/04/05 05:26:16;;;;;;;0.70;0.70;;;;;;;6.31;69.23;98291.95;105324;1279;138826;-89
2022/04/05 05:28:48;;;;;;;0.70;0.70;;;;;;;6.36;68.89;98295.44;104998;1280;108666;-90
2022/04/05 05:31:18;;;;;;;0.60;0.60;;;;;;;6.42;68.27;98299.40;106380;1279;97554;-92
2022/04/05 05:33:50;;;;;;;0.70;0.70;;;;;;;6.41;68.03;98304.90;107112;1280;136844;-88
2022/04/05 05:36:20;;;;;;;0.70;0.70;;;;;;;6.43;68.05;98309.39;105279;1279;95597;-89
2022/04/05 05:39:13;;;;;;;0.60;0.60;;;;;;;6.50;68.07;98322.30;105084;1279;137977;-90
2022/04/05 05:42:26;;;;;;;0.60;0.60;;;;;;;6.50;68.41;98333.23;105150;1279;108804;-90
2022/04/05 05:45:14;;;;;;;0.60;0.60;;;;;;;6.42;68.73;98335.88;105156;1281;139185;-90
2022/04/05 05:47:42;;;;;;;0.70;0.70;;;;;;;6.21;69.33;98340.46;105194;1281;107086;-90
2022/04/05 05:51:08;;;;;;;0.60;0.60;;;;;;;6.11;69.70;98340.36;104991;1281;95557;-91
2022/04/05 05:54:07;;;;;;;0.70;0.70;;;;;;;6.08;69.85;98339.58;103582;1277;95169;-62
2022/04/05 05:56:35;;;;;;;0.70;0.70;;;;;;;6.10;69.81;98343.73;103279;1277;138559;-66
2022/04/05 05:59:03;;;;;;;0.70;0.70;;;;;;;6.12;69.92;98345.95;103476;1279;99445;-64
2022/04/05 06:01:31;;;;;;;0.70;0.70;;;;;;;6.11;69.92;98347.92;103370;1279;109659;-65
2022/04/05 06:03:59;;;;;;;0.70;0.70;;;;;;;6.12;70.03;98344.16;103050;1278;139532;-64
2022/04/05 06:06:28;;;;;;;0.60;0.60;;;;;;;6.16;69.82;98345.96;102883;1277;97730;-64
2022/04/05 06:08:57;;;;;;;0.80;0.80;;;;;;;6.12;70.10;98345.77;103281;1277;138250;-64
2022/04/05 06:11:26;;;;;;;0.70;0.70;;;;;;;6.12;69.96;98345.59;103404;1278;99502;-64
2022/04/05 06:13:54;;;;;;;0.70;0.70;;;;;;;6.15;70.03;98342.99;103422;1279;109134;-63
2022/04/05 06:16:21;;;;;;;0.60;0.60;;;;;;;6.20;69.93;98349.14;103242;1277;138431;-64
2022/04/05 06:18:49;;;;;;;0.70;0.70;;;;;;;6.24;70.08;98350.23;103405;1278;95537;-64
2022/04/05 06:21:19;;;;;;;0.70;0.70;;;;;;;6.20;70.04;98365.89;103222;1278;138963;-65
2022/04/05 06:23:47;;;;;;;0.70;0.70;;;;;;;6.25;70.04;98361.27;103675;1281;98994;-64
2022/04/05 06:26:15;;;;;;;0.60;0.60;;;;;;;6.26;69.69;98354.88;103298;1278;138504;-64
2022/04/05 06:28:43;;;;;;;0.70;0.70;;;;;;;6.18;69.49;98358.74;103313;1277;95542;-63
2022/04/05 06:31:11;;;;;;;0.70;0.70;;;;;;;6.03;69.60;98363.04;103246;1277;95574;-64
2022/04/05 06:33:39;;;;;;;0.70;0.70;;;;;;;6.00;70.17;98369.14;103101;1281;138979;-64
2022/04/05 06:36:06;;;;;;;0.70;0.70;;;;;;;6.04;70.33;98365.64;103370;1277;98418;-64
2022/04/05 06:38:34;;;;;;;0.60;0.60;;;;;;;6.14;69.98;98368.06;103226;1278;138995;-63
2022/04/05 06:41:07;;;;;;;0.60;0.60;;;;;;;6.15;70.25;98373.47;103352;1279;95654;-64
2022/04/05 06:43:35;;;;;;;0.70;0.70;;;;;;;6.22;70.55;98370.93;103375;1278;98375;-63
2022/04/05 06:46:03;;;;;;;0.60;0.60;;;;;;;6.28;70.20;98370.50;103291;1277;138592;-65
2022/04/05 06:48:31;;;;;;;0.80;0.80;;;;;;;6.41;70.38;98362.56;103432;1279;99456;-64
2022/04/05 06:50:59;;;;;;;0.60;0.60;;;;;;;6.58;70.17;98365.17;103239;1278;138460;-64
2022/04/05 06:53:27;;;;;;;0.60;0.60;;;;;;;6.79;70.00;98363.21;103348;1279;95780;-64
2022/04/05 06:55:54;;;;;;;0.60;0.60;;;;;;;6.89;67.85;98362.23;103304;1279;95206;-64
2022/04/05 06:58:22;;;;;;;0.60;0.60;;;;;;;6.99;68.15;98357.58;103202;1279;138585;-63
2022/04/05 07:00:50;;;;;;;0.60;0.60;;;;;;;7.09;67.21;98363.83;103408;1279;98203;-65
2022/04/05 07:03:18;;;;;;;0.70;0.70;;;;;;;7.11;66.73;98359.33;103440;1279;137750;-64
2022/04/05 07:05:47;;;;;;;0.60;0.60;;;;;;;7.11;65.98;98361.48;103330;1279;95738;-64
2022/04/05 07:08:15;;;;;;;0.60;0.60;;;;;;;7.18;66.81;98364.99;103234;1281;138797;-66
2022/04/05 07:10:43;;;;;;;0.60;0.60;;;;;;;7.31;65.07;98365.50;103362;1279;109986;-63
2022/04/05 07:13:11;;;;;;;0.60;0.60;;;;;;;7.39;63.63;98371.13;103327;1281;99367;-65
2022/04/05 07:15:38;;;;;;;0.60;0.60;;;;;;;7.44;62.16;98380.80;103211;1280;137764;-65
2022/04/05 07:18:12;;;;;;;0.60;0.60;;;;;;;7.40;60.89;98386.27;103361;1277;95241;-65
2022/04/05 07:20:40;;;;;;;0.60;0.60;;;;;;;7.26;60.08;98378.94;103271;1277;138728;-63
2022/04/05 07:23:08;;;;;;;0.70;0.70;;;;;;;7.17;60.27;98383.04;103412;1277;109673;-63
2022/04/05 07:25:38;;;;;;;0.60;0.60;;;;;;;7.07;61.28;98384.21;103412;1277;97891;-63
2022/04/05 07:28:06;;;;;;;0.60;0.60;;;;;;;7.00;61.74;98383.82;103292;1278;138367;-64
2022/04/05 07:30:34;;;;;;;0.60;0.60;;;;;;;6.94;62.50;98385.31;103411;1277;95628;-64
2022/04/05 07:33:02;;;;;;;0.60;0.60;;;;;;;6.97;62.78;98385.71;103294;1277;138620;-63
2022/04/05 07:35:30;;;;;;;0.60;0.60;;;;;;;6.94;62.46;98391.52;103413;1276;110447;-65
2022/04/05 07:37:58;;;;;;;0.60;0.60;;;;;;;6.93;63.15;98401.75;103466;1277;99489;-64
2022/04/05 07:40:47;;;;;;;0.70;0.70;;;;;;;6.93;62.88;98409.18;103233;1277;137105;-65
2022/04/05 07:43:22;;;;;;;0.60;0.60;;;;;;;6.82;62.19;98413.90;103394;1277;95726;-65
2022/04/05 07:45:50;;;;;;;0.60;0.60;;;;;;;6.84;62.91;98426.31;103307;1276;139241;-65
2022/04/05 07:48:21;;;;;;;0.60;0.60;;;;;;;6.86;63.69;98432.23;103444;1276;109403;-64
2022/04/05 07:50:49;;;;;;;0.90;0.90;;;;;;;6.83;63.84;98435.55;103337;1276;138064;-64
2022/04/05 07:53:17;;;;;;;0.70;0.70;;;;;;;6.84;63.84;98439.38;103427;1276;108419;-64
2022/04/05 07:55:46;;;;;;;0.60;0.60;;;;;;;6.87;63.28;98441.35;103408;1276;95491;-63
2022/04/05 07:58:14;;;;;;;0.60;0.60;;;;;;;6.91;62.78;98439.25;103365;1276;138013;-64
2022/04/05 08:00:42;;;;;;;0.70;0.70;;;;;;;7.04;62.91;98439.23;103374;1276;108728;-64
2022/04/05 08:03:10;;;;;;;0.60;0.60;;;;;;;7.14;62.21;98438.42;103296;1278;138329;-64
2022/04/05 08:05:40;;;;;;;0.70;0.70;;;;;;;7.09;61.74;98438.64;103350;1277;108799;-64
2022/04/05 08:08:09;;;;;;;0.60;0.60;;;;;;;7.09;61.36;98437.23;103251;1276;139080;-64
2022/04/05 08:10:37;;;;;;;0.60;0.60;;;;;;;7.17;61.28;98438.67;103373;1276;95559;-65
2022/04/05 08:13:05;;;;;;;0.60;0.60;;;;;;;7.41;60.03;98442.55;103403;1276;109714;-63
2022/04/05 08:15:33;;;;;;;0.70;0.70;;;;;;;7.63;59.43;98442.41;103346;1276;138239;-64
2022/04/05 08:18:01;;;;;;;0.60;0.60;;;;;;;7.92;57.57;98440.75;103429;1276;108777;-63
2022/04/05 08:20:29;;;;;;;0.60;0.60;;;;;;;8.13;56.82;98439.91;103008;1277;138549;-63
2022/04/05 08:22:57;;;;;;;0.60;0.60;;;;;;;8.24;54.97;98435.48;103290;1278;97055;-64
2022/04/05 08:25:25;;;;;;;0.60;0.60;;;;;;;8.22;53.97;98445.88;103378;1278;109799;-63
2022/04/05 08:27:52;;;;;;;0.60;0.60;;;;;;;8.17;52.15;98448.58;103113;1279;138390;-65
2022/04/05 08:30:20;;;;;;;0.60;0.60;;;;;;;8.16;51.58;98448.98;103218;1279;109330;-63
2022/04/05 08:32:49;;;;;;;0.60;0.60;;;;;;;8.25;52.44;98451.02;103087;1279;138735;-63
2022/04/05 08:35:20;;;;;;;0.60;0.60;;;;;;;8.35;52.56;98458.49;103230;1279;95236;-63
2022/04/05 08:37:50;;;;;;;0.60;0.60;;;;;;;8.40;52.50;98459.17;103392;1278;110977;-63
2022/04/05 08:40:20;;;;;;;0.60;0.60;;;;;;;8.48;52.75;98463.20;103797;1279;138277;-63
2022/04/05 08:42:51;;;;;;;0.60;0.60;;;;;;;8.58;51.92;98469.08;103865;1279;110391;-64
2022/04/05 08:45:20;;;;;;;0.60;0.60;;;;;;;8.69;51.29;98473.68;103234;1279;138331;-63
2022/04/05 08:47:53;;;;;;;0.60;0.60;;;;;;;8.90;50.91;98471.73;103365;1279;96356;-63
2022/04/05 08:50:23;;;;;;;0.50;0.50;;;;;;;8.99;49.66;98474.68;103325;1279;137990;-63
2022/04/05 08:52:54;;;;;;;0.50;0.50;;;;;;;9.03;49.20;98468.59;103441;1279;99405;-64
2022/04/05 08:55:22;;;;;;;0.50;0.50;;;;;;;9.05;49.30;98468.86;103347;1279;108868;-62
2022/04/05 08:57:50;;;;;;;0.50;0.50;;;;;;;9.11;49.80;98478.11;103160;1279;138398;-63
2022/04/05 09:00:19;;;;;;;0.50;0.50;;;;;;;9.26;49.94;98478.79;103319;1279;95663;-63
2022/04/05 09:02:56;;;;;;;0.50;0.50;;;;;;;9.40;50.20;98484.98;103080;1279;138486;-63
2022/04/05 09:05:29;;;;;;;0.50;0.50;;;;;;;9.60;50.30;98481.59;104228;1277;99477;-63
2022/04/05 09:08:12;;;;;;;0.50;0.50;;;;;;;9.90;49.99;98481.39;103252;1276;109324;-62
2022/04/05 09:10:41;;;;;;;0.50;0.50;;;;;;;10.29;49.54;98483.02;103264;1277;138305;-63
2022/04/05 09:13:11;;;;;;;0.50;0.50;;;;;;;10.44;47.23;98486.26;103379;1277;95437;-63
2022/04/05 09:15:42;;;;;;;0.50;0.40;;;;;;;10.56;46.41;98485.04;103060;1277;138685;-64
2022/04/05 09:18:10;;;;;;;0.50;0.50;;;;;;;10.41;46.33;98491.55;103370;1277;98196;-63
2022/04/05 09:20:47;;;;;;;0.40;0.40;;;;;;;11.01;44.92;98499.90;103269;1279;139371;-65
2022/04/05 09:23:24;;;;;;;0.40;0.40;;;;;;;10.65;43.76;98501.39;103393;1279;95313;-64
2022/04/05 09:25:58;;;;;;;0.40;0.40;;;;;;;10.27;45.19;98507.94;103372;1278;95657;-63
2022/04/05 09:28:28;;;;;;;0.40;0.40;;;;;;;9.97;45.03;98508.86;103262;1277;138062;-64
2022/04/05 09:30:58;;;;;;;0.60;0.60;;;;;;;9.67;45.01;98504.80;103535;1277;98377;-64
2022/04/05 09:33:29;;;;;;;0.50;0.50;;;;;;;10.23;45.16;98509.56;103194;1278;137876;-64
2022/04/05 09:36:03;;;;;;;0.50;0.50;;;;;;;10.30;43.82;98511.48;103583;1278;95237;-63
2022/04/05 09:38:31;;;;;;;0.50;0.40;;;;;;;10.31;44.03;98515.16;103300;1278;138117;-63
2022/04/05 09:41:09;;;;;;;0.50;0.40;;;;;;;10.20;44.32;98518.42;103352;1279;110448;-64
2022/04/05 09:43:37;;;;;;;0.50;0.40;;;;;;;10.18;44.46;98523.54;103377;1279;97487;-63
2022/04/05 09:46:06;;;;;;;0.40;0.40;;;;;;;10.60;43.02;98527.94;103281;1279;138079;-64
2022/04/05 09:48:36;;;;;;;0.50;0.40;;;;;;;10.24;41.86;98527.25;103409;1277;95271;-63
2022/04/05 09:51:07;;;;;;;0.40;0.40;;;;;;;9.87;42.14;98530.15;103229;1277;138179;-64
2022/04/05 09:53:38;;;;;;;0.50;0.40;;;;;;;9.65;43.42;98530.05;103384;1279;109738;-63
2022/04/05 09:56:15;;;;;;;0.50;0.40;;;;;;;9.78;43.02;98536.27;103368;1277;97766;-63
2022/04/05 09:58:54;;;;;;;0.40;0.40;;;;;;;9.68;42.27;98533.98;103304;1276;137742;-64
2022/04/05 10:01:24;;;;;;;0.50;0.40;;;;;;;9.38;43.09;98543.35;103358;1278;96566;-65
2022/04/05 10:04:16;;;;;;;0.50;0.40;;;;;;;10.08;43.44;98541.92;103342;1278;138263;-63
2022/04/05 10:06:48;;;;;;;0.40;0.40;;;;;;;11.07;40.25;98535.59;103318;1278;109173;-65
2022/04/05 10:09:18;;;;;;;0.40;0.40;;;;;;;11.22;40.68;98540.02;103253;1276;138439;-63
2022/04/05 10:11:46;;;;;;;0.40;0.30;;;;;;;10.97;40.97;98548.41;103396;1279;108919;-64
2022/04/05 10:14:20;;;;;;;0.40;0.40;;;;;;;10.73;41.87;98551.00;103301;1277;96076;-63
2022/04/05 10:16:49;;;;;;;0.40;0.40;;;;;;;10.43;40.99;98553.19;103424;1279;140051;-64
2022/04/05 10:19:19;;;;;;;0.40;0.30;;;;;;;10.92;40.29;98561.39;103909;1276;109408;-65
2022/04/05 10:21:48;;;;;;;0.40;0.30;;;;;;;11.78;39.02;98556.23;103287;1277;138330;-64
2022/04/05 10:24:16;;;;;;;0.40;0.30;;;;;;;11.35;38.87;98560.55;103324;1278;107834;-63
2022/04/05 10:26:48;;;;;;;0.40;0.30;;;;;;;10.96;39.37;98565.15;103278;1277;138861;-64
2022/04/05 10:29:19;;;;;;;0.40;0.40;;;;;;;10.64;39.91;98574.26;103424;1278;95130;-64
2022/04/05 10:32:21;;;;;;;0.50;0.40;;;;;;;11.19;40.28;98567.83;103296;1277;108429;-68
2022/04/05 10:35:08;;;;;;;0.40;0.30;;;;;;;13.18;36.88;98570.77;103312;1276;138250;-63
2022/04/05 10:37:38;;;;;;;0.40;0.30;;;;;;;12.42;37.24;98577.59;103328;1277;108872;-62
2022/04/05 10:40:07;;;;;;;0.40;0.30;;;;;;;11.87;37.83;98578.63;103405;1278;139201;-63
2022/04/05 10:42:48;;;;;;;0.40;0.30;;;;;;;11.65;38.41;98582.08;103601;1277;95730;-65
2022/04/05 10:45:25;;;;;;;0.40;0.30;;;;;;;11.52;39.34;98584.79;103293;1279;138100;-64
2022/04/05 10:48:14;;;;;;;0.40;0.30;;;;;;;11.70;38.76;98588.22;103491;1279;99686;-63
2022/04/05 10:51:00;;;;;;;0.40;0.30;;;;;;;13.38;35.64;98589.88;103185;1277;138850;-63
2022/04/05 10:53:41;;;;;;;0.40;0.20;;;;;;;13.97;34.12;98594.84;103516;1279;95529;-64
2022/04/05 10:56:10;;;;;;;0.40;0.20;;;;;;;13.21;34.60;98599.61;103407;1277;96041;-63
2022/04/05 10:59:05;;;;;;;0.40;0.20;;;;;;;12.50;35.41;98602.02;103701;1276;138321;-63
2022/04/05 11:01:43;;;;;;;0.40;0.30;;;;;;;11.74;36.31;98612.13;103338;1276;98560;-63
2022/04/05 11:04:12;;;;;;;0.40;0.30;;;;;;;11.27;37.48;98615.08;103292;1278;138154;-63
2022/04/05 11:06:58;;;;;;;0.40;0.30;;;;;;;10.85;37.70;98624.36;103337;1277;95757;-63
2022/04/05 11:09:32;;;;;;;0.40;0.30;;;;;;;10.45;38.19;98625.13;103293;1277;138622;-63
2022/04/05 11:12:03;;;;;;;0.40;0.30;;;;;;;10.45;38.95;98628.01;103594;1277;109821;-63
2022/04/05 11:14:38;;;;;;;0.50;0.40;;;;;;;10.33;38.81;98629.85;103298;1277;139329;-64
2022/04/05 11:17:10;;;;;;;0.40;0.40;;;;;;;10.24;39.28;98633.70;103975;1277;109287;-63
2022/04/05 11:19:39;;;;;;;0.50;0.40;;;;;;;10.10;38.57;98636.55;103326;1279;95819;-64
2022/04/05 11:22:20;;;;;;;0.40;0.40;;;;;;;10.11;39.48;98637.92;103536;1277;138190;-64
2022/04/05 11:25:00;;;;;;;0.40;0.40;;;;;;;10.21;39.20;98639.17;103424;1276;109862;-64
2022/04/05 11:27:33;;;;;;;0.40;0.40;;;;;;;10.29;39.49;98642.11;103324;1277;138343;-63
2022/04/05 11:30:23;;;;;;;0.50;0.40;;;;;;;10.36;39.15;98642.29;103457;1276;108958;-63
2022/04/05 11:33:09;;;;;;;0.50;0.40;;;;;;;10.37;38.33;98643.30;103232;1277;138495;-63
2022/04/05 11:35:46;;;;;;;0.50;0.40;;;;;;;10.39;38.88;98653.52;103316;1276;95232;-62
2022/04/05 11:38:17;;;;;;;0.40;0.40;;;;;;;10.39;39.65;98657.96;103389;1277;108019;-62
2022/04/05 11:41:00;;;;;;;0.40;0.40;;;;;;;10.34;39.37;98658.00;103280;1277;138168;-63
2022/04/05 11:43:34;;;;;;;0.40;0.40;;;;;;;10.21;39.77;98660.11;103373;1278;109046;-62
2022/04/05 11:46:20;;;;;;;0.40;0.40;;;;;;;10.09;40.04;98669.23;103357;1277;138731;-64
2022/04/05 11:48:51;;;;;;;0.50;0.40;;;;;;;9.99;40.14;98667.76;103448;1277;95796;-65
2022/04/05 11:51:22;;;;;;;0.50;0.40;;;;;;;9.94;40.39;98668.77;103751;1279;138932;-69
2022/04/05 11:54:08;;;;;;;0.40;0.40;;;;;;;9.89;40.45;98668.13;103377;1279;99459;-64
2022/04/05 11:56:40;;;;;;;0.50;0.40;;;;;;;9.83;40.58;98668.44;103285;1278;138691;-64
2022/04/05 11:59:10;;;;;;;0.40;0.40;;;;;;;9.79;41.00;98674.49;103294;1279;95721;-64
2022/04/05 12:01:40;;;;;;;0.40;0.40;;;;;;;9.78;41.10;98675.95;103492;1278;95468;-65
2022/04/05 12:04:13;;;;;;;0.50;0.40;;;;;;;9.73;41.19;98671.98;103278;1279;138384;-62
2022/04/05 12:06:46;;;;;;;0.50;0.40;;;;;;;9.69;40.67;98677.09;103538;1277;98127;-63
2022/04/05 12:09:18;;;;;;;0.50;0.40;;;;;;;9.73;41.02;98673.02;103315;1277;138549;-63
2022/04/05 12:11:48;;;;;;;0.50;0.40;;;;;;;9.78;40.44;98672.23;103671;1278;95816;-61